sensor_id;sensor_type;location;lat;lon;timestamp;P1;durP1;ratioP1;P2;durP2;ratioP2
26530;SDS011;14201;43.188;24.160;2024-02-21T00:02:19;7.05;;;5.18;;
26530;SDS011;14201;43.188;24.160;2024-02-21T00:04:44;9.07;;;5.43;;
26530;SDS011;14201;43.188;24.160;2024-02-21T00:07:10;9.30;;;5.28;;
26530;SDS011;14201;43.188;24.160;2024-02-21T00:09:35;8.20;;;5.50;;
26530;SDS011;14201;43.188;24.160;2024-02-21T00:12:01;6.93;;;5.28;;
26530;SDS011;14201;43.188;24.160;2024-02-21T00:14:28;6.75;;;4.90;;
26530;SDS011;14201;43.188;24.160;2024-02-21T00:16:53;8.45;;;5.28;;
26530;SDS011;14201;43.188;24.160;2024-02-21T00:19:19;7.63;;;4.85;;
26530;SDS011;14201;43.188;24.160;2024-02-21T00:21:44;7.05;;;5.10;;
26530;SDS011;14201;43.188;24.160;2024-02-21T00:24:10;8.60;;;5.35;;
26530;SDS011;14201;43.188;24.160;2024-02-21T00:26:36;7.90;;;4.85;;
26530;SDS011;14201;43.188;24.160;2024-02-21T00:29:01;5.97;;;4.57;;
26530;SDS011;14201;43.188;24.160;2024-02-21T00:31:30;6.72;;;4.60;;
26530;SDS011;14201;43.188;24.160;2024-02-21T00:33:55;6.55;;;4.75;;
26530;SDS011;14201;43.188;24.160;2024-02-21T00:36:21;5.47;;;4.45;;
26530;SDS011;14201;43.188;24.160;2024-02-21T00:38:46;7.60;;;4.95;;
26530;SDS011;14201;43.188;24.160;2024-02-21T00:41:12;7.47;;;5.32;;
26530;SDS011;14201;43.188;24.160;2024-02-21T00:43:38;7.00;;;5.10;;
26530;SDS011;14201;43.188;24.160;2024-02-21T00:46:05;6.40;;;5.00;;
26530;SDS011;14201;43.188;24.160;2024-02-21T00:48:31;6.50;;;5.38;;
26530;SDS011;14201;43.188;24.160;2024-02-21T00:50:56;8.40;;;4.90;;
26530;SDS011;14201;43.188;24.160;2024-02-21T00:53:23;6.93;;;4.85;;
26530;SDS011;14201;43.188;24.160;2024-02-21T00:55:48;7.35;;;5.07;;
26530;SDS011;14201;43.188;24.160;2024-02-21T00:58:14;6.30;;;4.65;;
26530;SDS011;14201;43.188;24.160;2024-02-21T01:00:40;6.55;;;4.63;;
26530;SDS011;14201;43.188;24.160;2024-02-21T01:03:06;6.85;;;4.60;;
26530;SDS011;14201;43.188;24.160;2024-02-21T01:05:31;7.00;;;5.00;;
26530;SDS011;14201;43.188;24.160;2024-02-21T01:07:57;8.18;;;4.90;;
26530;SDS011;14201;43.188;24.160;2024-02-21T01:10:22;6.65;;;4.38;;
26530;SDS011;14201;43.188;24.160;2024-02-21T01:12:48;8.18;;;5.05;;
26530;SDS011;14201;43.188;24.160;2024-02-21T01:15:14;7.90;;;5.05;;
26530;SDS011;14201;43.188;24.160;2024-02-21T01:17:39;8.13;;;4.80;;
26530;SDS011;14201;43.188;24.160;2024-02-21T01:20:06;6.85;;;4.80;;
26530;SDS011;14201;43.188;24.160;2024-02-21T01:22:32;7.13;;;4.40;;
26530;SDS011;14201;43.188;24.160;2024-02-21T01:24:58;7.15;;;5.05;;
26530;SDS011;14201;43.188;24.160;2024-02-21T01:27:23;8.15;;;5.57;;
26530;SDS011;14201;43.188;24.160;2024-02-21T01:29:49;9.15;;;5.30;;
26530;SDS011;14201;43.188;24.160;2024-02-21T01:32:15;7.75;;;5.20;;
26530;SDS011;14201;43.188;24.160;2024-02-21T01:34:41;6.80;;;5.10;;
26530;SDS011;14201;43.188;24.160;2024-02-21T01:37:07;7.60;;;5.10;;
26530;SDS011;14201;43.188;24.160;2024-02-21T01:39:33;8.70;;;5.50;;
26530;SDS011;14201;43.188;24.160;2024-02-21T01:41:59;8.02;;;5.05;;
26530;SDS011;14201;43.188;24.160;2024-02-21T01:44:25;8.07;;;5.38;;
26530;SDS011;14201;43.188;24.160;2024-02-21T01:46:50;8.27;;;5.78;;
26530;SDS011;14201;43.188;24.160;2024-02-21T01:49:17;8.43;;;5.75;;
26530;SDS011;14201;43.188;24.160;2024-02-21T01:51:44;7.38;;;5.70;;
26530;SDS011;14201;43.188;24.160;2024-02-21T01:54:10;6.68;;;5.13;;
26530;SDS011;14201;43.188;24.160;2024-02-21T01:56:38;8.30;;;5.60;;
26530;SDS011;14201;43.188;24.160;2024-02-21T01:59:04;8.52;;;5.47;;
26530;SDS011;14201;43.188;24.160;2024-02-21T02:01:30;7.22;;;4.88;;
26530;SDS011;14201;43.188;24.160;2024-02-21T02:03:55;6.47;;;4.38;;
26530;SDS011;14201;43.188;24.160;2024-02-21T02:06:22;8.88;;;4.97;;
26530;SDS011;14201;43.188;24.160;2024-02-21T02:08:47;6.97;;;5.10;;
26530;SDS011;14201;43.188;24.160;2024-02-21T02:11:13;6.68;;;4.53;;
26530;SDS011;14201;43.188;24.160;2024-02-21T02:13:40;7.30;;;4.90;;
26530;SDS011;14201;43.188;24.160;2024-02-21T02:16:05;7.47;;;5.22;;
26530;SDS011;14201;43.188;24.160;2024-02-21T02:18:31;6.90;;;4.82;;
26530;SDS011;14201;43.188;24.160;2024-02-21T02:20:57;5.82;;;4.10;;
26530;SDS011;14201;43.188;24.160;2024-02-21T02:23:25;5.53;;;4.32;;
26530;SDS011;14201;43.188;24.160;2024-02-21T02:25:54;5.72;;;4.35;;
26530;SDS011;14201;43.188;24.160;2024-02-21T02:28:21;6.13;;;4.82;;
26530;SDS011;14201;43.188;24.160;2024-02-21T02:30:47;7.65;;;4.75;;
26530;SDS011;14201;43.188;24.160;2024-02-21T02:33:13;5.88;;;4.88;;
26530;SDS011;14201;43.188;24.160;2024-02-21T02:35:38;6.80;;;4.85;;
26530;SDS011;14201;43.188;24.160;2024-02-21T02:38:04;8.45;;;5.25;;
26530;SDS011;14201;43.188;24.160;2024-02-21T02:40:31;6.10;;;4.72;;
26530;SDS011;14201;43.188;24.160;2024-02-21T02:42:58;6.18;;;4.53;;
26530;SDS011;14201;43.188;24.160;2024-02-21T02:45:24;6.45;;;4.38;;
26530;SDS011;14201;43.188;24.160;2024-02-21T02:47:51;6.80;;;5.05;;
26530;SDS011;14201;43.188;24.160;2024-02-21T02:50:21;6.80;;;4.55;;
26530;SDS011;14201;43.188;24.160;2024-02-21T02:52:48;8.25;;;5.00;;
26530;SDS011;14201;43.188;24.160;2024-02-21T02:55:13;7.22;;;5.10;;
26530;SDS011;14201;43.188;24.160;2024-02-21T02:57:39;7.10;;;4.88;;
26530;SDS011;14201;43.188;24.160;2024-02-21T03:00:07;6.45;;;4.53;;
26530;SDS011;14201;43.188;24.160;2024-02-21T03:02:33;5.88;;;4.53;;
26530;SDS011;14201;43.188;24.160;2024-02-21T03:04:58;6.88;;;4.70;;
26530;SDS011;14201;43.188;24.160;2024-02-21T03:07:25;8.48;;;5.10;;
26530;SDS011;14201;43.188;24.160;2024-02-21T03:09:50;5.68;;;4.63;;
26530;SDS011;14201;43.188;24.160;2024-02-21T03:12:17;6.65;;;5.22;;
26530;SDS011;14201;43.188;24.160;2024-02-21T03:14:49;6.80;;;4.60;;
26530;SDS011;14201;43.188;24.160;2024-02-21T03:17:15;6.95;;;5.00;;
26530;SDS011;14201;43.188;24.160;2024-02-21T03:19:41;6.10;;;4.80;;
26530;SDS011;14201;43.188;24.160;2024-02-21T03:22:07;7.05;;;5.13;;
26530;SDS011;14201;43.188;24.160;2024-02-21T03:24:32;7.35;;;5.00;;
26530;SDS011;14201;43.188;24.160;2024-02-21T03:26:58;5.25;;;4.25;;
26530;SDS011;14201;43.188;24.160;2024-02-21T03:29:24;7.05;;;4.47;;
26530;SDS011;14201;43.188;24.160;2024-02-21T03:31:50;6.65;;;4.47;;
26530;SDS011;14201;43.188;24.160;2024-02-21T03:34:16;6.72;;;4.78;;
26530;SDS011;14201;43.188;24.160;2024-02-21T03:36:41;6.00;;;4.57;;
26530;SDS011;14201;43.188;24.160;2024-02-21T03:39:07;6.30;;;4.60;;
26530;SDS011;14201;43.188;24.160;2024-02-21T03:41:34;6.40;;;4.70;;
26530;SDS011;14201;43.188;24.160;2024-02-21T03:44:00;6.30;;;4.57;;
26530;SDS011;14201;43.188;24.160;2024-02-21T03:46:26;6.00;;;4.22;;
26530;SDS011;14201;43.188;24.160;2024-02-21T03:48:52;5.88;;;4.25;;
26530;SDS011;14201;43.188;24.160;2024-02-21T03:56:09;6.87;;;4.40;;
26530;SDS011;14201;43.188;24.160;2024-02-21T03:58:34;6.38;;;4.72;;
26530;SDS011;14201;43.188;24.160;2024-02-21T04:01:00;6.00;;;4.30;;
26530;SDS011;14201;43.188;24.160;2024-02-21T04:05:55;6.10;;;4.73;;
26530;SDS011;14201;43.188;24.160;2024-02-21T04:08:21;6.93;;;5.22;;
26530;SDS011;14201;43.188;24.160;2024-02-21T04:10:47;7.82;;;5.88;;
26530;SDS011;14201;43.188;24.160;2024-02-21T04:13:13;8.40;;;6.00;;
26530;SDS011;14201;43.188;24.160;2024-02-21T04:15:38;6.78;;;5.38;;
26530;SDS011;14201;43.188;24.160;2024-02-21T04:18:04;8.15;;;4.88;;
26530;SDS011;14201;43.188;24.160;2024-02-21T04:20:30;7.18;;;5.28;;
26530;SDS011;14201;43.188;24.160;2024-02-21T04:22:56;8.05;;;5.55;;
26530;SDS011;14201;43.188;24.160;2024-02-21T04:25:23;8.05;;;5.57;;
26530;SDS011;14201;43.188;24.160;2024-02-21T04:27:49;9.35;;;5.95;;
26530;SDS011;14201;43.188;24.160;2024-02-21T04:30:14;8.52;;;5.57;;
26530;SDS011;14201;43.188;24.160;2024-02-21T04:32:40;7.93;;;5.80;;
26530;SDS011;14201;43.188;24.160;2024-02-21T04:35:06;9.30;;;6.33;;
26530;SDS011;14201;43.188;24.160;2024-02-21T04:37:33;9.30;;;5.85;;
26530;SDS011;14201;43.188;24.160;2024-02-21T04:39:58;7.82;;;5.50;;
26530;SDS011;14201;43.188;24.160;2024-02-21T04:42:24;9.40;;;6.32;;
26530;SDS011;14201;43.188;24.160;2024-02-21T04:44:50;8.63;;;6.13;;
26530;SDS011;14201;43.188;24.160;2024-02-21T04:47:15;8.55;;;5.93;;
26530;SDS011;14201;43.188;24.160;2024-02-21T04:49:41;7.93;;;5.25;;
26530;SDS011;14201;43.188;24.160;2024-02-21T04:52:06;8.07;;;5.47;;
26530;SDS011;14201;43.188;24.160;2024-02-21T04:54:32;7.13;;;5.78;;
26530;SDS011;14201;43.188;24.160;2024-02-21T04:57:00;8.05;;;6.05;;
26530;SDS011;14201;43.188;24.160;2024-02-21T04:59:25;8.95;;;6.35;;
26530;SDS011;14201;43.188;24.160;2024-02-21T05:01:51;8.23;;;6.18;;
26530;SDS011;14201;43.188;24.160;2024-02-21T05:04:17;8.43;;;6.05;;
26530;SDS011;14201;43.188;24.160;2024-02-21T05:06:43;9.48;;;6.35;;
26530;SDS011;14201;43.188;24.160;2024-02-21T05:09:09;9.38;;;6.60;;
26530;SDS011;14201;43.188;24.160;2024-02-21T05:11:35;8.35;;;6.07;;
26530;SDS011;14201;43.188;24.160;2024-02-21T05:14:02;10.73;;;6.60;;
26530;SDS011;14201;43.188;24.160;2024-02-21T05:16:28;9.20;;;6.15;;
26530;SDS011;14201;43.188;24.160;2024-02-21T05:18:54;8.35;;;6.20;;
26530;SDS011;14201;43.188;24.160;2024-02-21T05:21:22;8.57;;;5.97;;
26530;SDS011;14201;43.188;24.160;2024-02-21T05:23:50;8.23;;;6.05;;
26530;SDS011;14201;43.188;24.160;2024-02-21T05:26:23;9.82;;;6.65;;
26530;SDS011;14201;43.188;24.160;2024-02-21T05:28:49;7.43;;;5.78;;
26530;SDS011;14201;43.188;24.160;2024-02-21T05:31:16;9.37;;;6.80;;
26530;SDS011;14201;43.188;24.160;2024-02-21T05:33:45;7.72;;;5.68;;
26530;SDS011;14201;43.188;24.160;2024-02-21T05:36:11;9.88;;;6.30;;
26530;SDS011;14201;43.188;24.160;2024-02-21T05:38:38;9.05;;;5.95;;
26530;SDS011;14201;43.188;24.160;2024-02-21T05:41:03;8.40;;;6.30;;
26530;SDS011;14201;43.188;24.160;2024-02-21T05:43:29;10.00;;;6.85;;
26530;SDS011;14201;43.188;24.160;2024-02-21T05:45:55;9.40;;;6.88;;
26530;SDS011;14201;43.188;24.160;2024-02-21T05:48:22;9.80;;;6.57;;
26530;SDS011;14201;43.188;24.160;2024-02-21T05:50:48;8.85;;;6.07;;
26530;SDS011;14201;43.188;24.160;2024-02-21T05:53:13;8.27;;;6.18;;
26530;SDS011;14201;43.188;24.160;2024-02-21T05:55:39;8.60;;;6.40;;
26530;SDS011;14201;43.188;24.160;2024-02-21T05:58:06;11.40;;;7.00;;
26530;SDS011;14201;43.188;24.160;2024-02-21T06:00:32;9.70;;;6.93;;
26530;SDS011;14201;43.188;24.160;2024-02-21T06:02:58;7.82;;;5.90;;
26530;SDS011;14201;43.188;24.160;2024-02-21T06:05:23;8.20;;;6.18;;
26530;SDS011;14201;43.188;24.160;2024-02-21T06:07:49;9.05;;;6.40;;
26530;SDS011;14201;43.188;24.160;2024-02-21T06:10:15;7.63;;;6.03;;
26530;SDS011;14201;43.188;24.160;2024-02-21T06:12:41;10.43;;;6.47;;
26530;SDS011;14201;43.188;24.160;2024-02-21T06:15:06;9.70;;;6.53;;
26530;SDS011;14201;43.188;24.160;2024-02-21T06:17:32;8.70;;;6.07;;
26530;SDS011;14201;43.188;24.160;2024-02-21T06:19:58;7.95;;;6.25;;
26530;SDS011;14201;43.188;24.160;2024-02-21T06:22:24;9.15;;;6.28;;
26530;SDS011;14201;43.188;24.160;2024-02-21T06:24:49;9.52;;;6.63;;
26530;SDS011;14201;43.188;24.160;2024-02-21T06:27:15;9.10;;;6.38;;
26530;SDS011;14201;43.188;24.160;2024-02-21T06:29:42;10.35;;;6.55;;
26530;SDS011;14201;43.188;24.160;2024-02-21T06:32:07;8.32;;;6.05;;
26530;SDS011;14201;43.188;24.160;2024-02-21T06:34:33;9.00;;;5.85;;
26530;SDS011;14201;43.188;24.160;2024-02-21T06:36:59;8.63;;;5.97;;
26530;SDS011;14201;43.188;24.160;2024-02-21T06:39:24;8.63;;;5.83;;
26530;SDS011;14201;43.188;24.160;2024-02-21T06:41:50;8.90;;;5.70;;
26530;SDS011;14201;43.188;24.160;2024-02-21T06:44:16;8.02;;;5.60;;
26530;SDS011;14201;43.188;24.160;2024-02-21T06:46:42;7.55;;;5.43;;
26530;SDS011;14201;43.188;24.160;2024-02-21T06:49:08;7.93;;;5.65;;
26530;SDS011;14201;43.188;24.160;2024-02-21T06:51:34;8.10;;;5.90;;
26530;SDS011;14201;43.188;24.160;2024-02-21T06:54:02;9.73;;;5.95;;
26530;SDS011;14201;43.188;24.160;2024-02-21T06:56:27;7.63;;;5.43;;
26530;SDS011;14201;43.188;24.160;2024-02-21T06:58:54;7.95;;;5.72;;
26530;SDS011;14201;43.188;24.160;2024-02-21T07:01:20;6.35;;;5.03;;
26530;SDS011;14201;43.188;24.160;2024-02-21T07:03:46;8.00;;;5.43;;
26530;SDS011;14201;43.188;24.160;2024-02-21T07:06:11;7.97;;;5.47;;
26530;SDS011;14201;43.188;24.160;2024-02-21T07:08:37;8.65;;;5.93;;
26530;SDS011;14201;43.188;24.160;2024-02-21T07:11:04;7.15;;;5.00;;
26530;SDS011;14201;43.188;24.160;2024-02-21T07:13:30;7.72;;;5.40;;
26530;SDS011;14201;43.188;24.160;2024-02-21T07:15:55;7.35;;;5.10;;
26530;SDS011;14201;43.188;24.160;2024-02-21T07:18:21;7.43;;;5.47;;
26530;SDS011;14201;43.188;24.160;2024-02-21T07:20:46;6.85;;;5.25;;
26530;SDS011;14201;43.188;24.160;2024-02-21T07:23:12;5.47;;;4.38;;
26530;SDS011;14201;43.188;24.160;2024-02-21T07:25:38;6.43;;;4.40;;
26530;SDS011;14201;43.188;24.160;2024-02-21T07:28:04;7.80;;;5.00;;
26530;SDS011;14201;43.188;24.160;2024-02-21T07:30:31;7.88;;;4.88;;
26530;SDS011;14201;43.188;24.160;2024-02-21T07:32:57;6.60;;;4.72;;
26530;SDS011;14201;43.188;24.160;2024-02-21T07:35:22;6.43;;;5.07;;
26530;SDS011;14201;43.188;24.160;2024-02-21T07:37:48;6.15;;;4.35;;
26530;SDS011;14201;43.188;24.160;2024-02-21T07:40:15;6.07;;;4.80;;
26530;SDS011;14201;43.188;24.160;2024-02-21T07:42:41;6.63;;;4.38;;
26530;SDS011;14201;43.188;24.160;2024-02-21T07:45:08;6.57;;;4.70;;
26530;SDS011;14201;43.188;24.160;2024-02-21T07:47:34;5.85;;;4.60;;
26530;SDS011;14201;43.188;24.160;2024-02-21T07:50:01;5.35;;;4.30;;
26530;SDS011;14201;43.188;24.160;2024-02-21T07:52:27;5.97;;;4.47;;
26530;SDS011;14201;43.188;24.160;2024-02-21T07:54:53;6.88;;;4.43;;
26530;SDS011;14201;43.188;24.160;2024-02-21T07:57:18;5.80;;;4.28;;
26530;SDS011;14201;43.188;24.160;2024-02-21T07:59:44;5.90;;;4.15;;
26530;SDS011;14201;43.188;24.160;2024-02-21T08:02:12;7.38;;;5.00;;
26530;SDS011;14201;43.188;24.160;2024-02-21T08:04:39;10.00;;;4.28;;
26530;SDS011;14201;43.188;24.160;2024-02-21T08:07:04;5.72;;;4.28;;
26530;SDS011;14201;43.188;24.160;2024-02-21T08:09:30;6.65;;;4.32;;
26530;SDS011;14201;43.188;24.160;2024-02-21T08:11:56;5.57;;;4.28;;
26530;SDS011;14201;43.188;24.160;2024-02-21T08:14:21;5.97;;;4.63;;
26530;SDS011;14201;43.188;24.160;2024-02-21T08:16:47;6.40;;;4.18;;
26530;SDS011;14201;43.188;24.160;2024-02-21T08:19:14;6.47;;;4.78;;
26530;SDS011;14201;43.188;24.160;2024-02-21T08:21:39;6.53;;;4.80;;
26530;SDS011;14201;43.188;24.160;2024-02-21T08:24:05;6.75;;;5.35;;
26530;SDS011;14201;43.188;24.160;2024-02-21T08:26:31;6.60;;;4.95;;
26530;SDS011;14201;43.188;24.160;2024-02-21T08:28:56;5.40;;;4.45;;
26530;SDS011;14201;43.188;24.160;2024-02-21T08:31:28;7.40;;;4.80;;
26530;SDS011;14201;43.188;24.160;2024-02-21T08:36:32;6.35;;;4.68;;
26530;SDS011;14201;43.188;24.160;2024-02-21T08:38:59;7.57;;;5.47;;
26530;SDS011;14201;43.188;24.160;2024-02-21T08:41:25;6.70;;;5.32;;
26530;SDS011;14201;43.188;24.160;2024-02-21T08:43:52;7.50;;;4.82;;
26530;SDS011;14201;43.188;24.160;2024-02-21T08:46:21;8.13;;;6.15;;
26530;SDS011;14201;43.188;24.160;2024-02-21T08:48:49;7.53;;;5.78;;
26530;SDS011;14201;43.188;24.160;2024-02-21T08:51:16;7.95;;;6.25;;
26530;SDS011;14201;43.188;24.160;2024-02-21T08:53:42;8.38;;;6.63;;
26530;SDS011;14201;43.188;24.160;2024-02-21T08:56:08;8.48;;;6.50;;
26530;SDS011;14201;43.188;24.160;2024-02-21T08:58:34;9.25;;;6.93;;
26530;SDS011;14201;43.188;24.160;2024-02-21T09:01:04;8.27;;;6.43;;
26530;SDS011;14201;43.188;24.160;2024-02-21T09:03:32;7.95;;;6.18;;
26530;SDS011;14201;43.188;24.160;2024-02-21T09:05:58;7.88;;;5.68;;
26530;SDS011;14201;43.188;24.160;2024-02-21T09:08:24;7.13;;;5.53;;
26530;SDS011;14201;43.188;24.160;2024-02-21T09:10:51;9.43;;;5.95;;
26530;SDS011;14201;43.188;24.160;2024-02-21T09:20:36;8.13;;;4.97;;
26530;SDS011;14201;43.188;24.160;2024-02-21T09:23:01;6.85;;;4.95;;
26530;SDS011;14201;43.188;24.160;2024-02-21T09:37:40;5.05;;;3.45;;
26530;SDS011;14201;43.188;24.160;2024-02-21T09:40:06;7.60;;;4.00;;
26530;SDS011;14201;43.188;24.160;2024-02-21T09:42:39;5.70;;;4.10;;
26530;SDS011;14201;43.188;24.160;2024-02-21T10:46:53;6.63;;;3.90;;
26530;SDS011;14201;43.188;24.160;2024-02-21T12:11:26;5.43;;;3.40;;
26530;SDS011;14201;43.188;24.160;2024-02-21T12:14:03;5.35;;;3.10;;
26530;SDS011;14201;43.188;24.160;2024-02-21T12:16:30;4.85;;;3.22;;
26530;SDS011;14201;43.188;24.160;2024-02-21T12:18:58;4.90;;;3.35;;
26530;SDS011;14201;43.188;24.160;2024-02-21T12:21:25;5.00;;;3.10;;
26530;SDS011;14201;43.188;24.160;2024-02-21T12:23:54;4.78;;;3.15;;
26530;SDS011;14201;43.188;24.160;2024-02-21T12:26:20;5.55;;;4.00;;
26530;SDS011;14201;43.188;24.160;2024-02-21T12:28:46;6.60;;;3.50;;
26530;SDS011;14201;43.188;24.160;2024-02-21T12:31:12;5.70;;;4.00;;
26530;SDS011;14201;43.188;24.160;2024-02-21T12:33:38;4.85;;;3.42;;
26530;SDS011;14201;43.188;24.160;2024-02-21T12:36:04;5.80;;;3.00;;
26530;SDS011;14201;43.188;24.160;2024-02-21T12:38:30;3.00;;;2.50;;
26530;SDS011;14201;43.188;24.160;2024-02-21T12:40:55;4.10;;;2.50;;
26530;SDS011;14201;43.188;24.160;2024-02-21T12:43:25;3.10;;;2.27;;
26530;SDS011;14201;43.188;24.160;2024-02-21T12:45:52;2.60;;;1.90;;
26530;SDS011;14201;43.188;24.160;2024-02-21T12:48:18;2.63;;;1.73;;
26530;SDS011;14201;43.188;24.160;2024-02-21T12:50:50;3.50;;;2.20;;
26530;SDS011;14201;43.188;24.160;2024-02-21T12:53:19;2.10;;;1.10;;
26530;SDS011;14201;43.188;24.160;2024-02-21T12:55:47;1.70;;;1.45;;
26530;SDS011;14201;43.188;24.160;2024-02-21T12:58:13;3.27;;;1.50;;
26530;SDS011;14201;43.188;24.160;2024-02-21T13:00:40;2.50;;;1.60;;
26530;SDS011;14201;43.188;24.160;2024-02-21T13:03:06;2.75;;;1.80;;
26530;SDS011;14201;43.188;24.160;2024-02-21T13:05:32;3.20;;;1.90;;
26530;SDS011;14201;43.188;24.160;2024-02-21T13:07:58;2.97;;;1.83;;
26530;SDS011;14201;43.188;24.160;2024-02-21T13:12:49;2.90;;;1.70;;
26530;SDS011;14201;43.188;24.160;2024-02-21T13:15:15;2.50;;;1.60;;
26530;SDS011;14201;43.188;24.160;2024-02-21T13:17:43;3.00;;;1.90;;
26530;SDS011;14201;43.188;24.160;2024-02-21T13:22:36;4.22;;;1.98;;
26530;SDS011;14201;43.188;24.160;2024-02-21T13:29:54;3.20;;;1.80;;
26530;SDS011;14201;43.188;24.160;2024-02-21T13:32:20;3.60;;;2.03;;
26530;SDS011;14201;43.188;24.160;2024-02-21T13:34:46;3.35;;;2.03;;
26530;SDS011;14201;43.188;24.160;2024-02-21T13:37:11;3.00;;;2.00;;
26530;SDS011;14201;43.188;24.160;2024-02-21T13:39:38;3.25;;;1.83;;
26530;SDS011;14201;43.188;24.160;2024-02-21T13:42:05;1.93;;;1.50;;
26530;SDS011;14201;43.188;24.160;2024-02-21T13:44:31;4.30;;;1.80;;
26530;SDS011;14201;43.188;24.160;2024-02-21T13:46:57;2.40;;;1.65;;
26530;SDS011;14201;43.188;24.160;2024-02-21T13:51:48;1.65;;;1.40;;
26530;SDS011;14201;43.188;24.160;2024-02-21T13:54:14;2.08;;;1.25;;
26530;SDS011;14201;43.188;24.160;2024-02-21T13:56:42;2.25;;;1.50;;
26530;SDS011;14201;43.188;24.160;2024-02-21T13:59:08;2.83;;;1.42;;
26530;SDS011;14201;43.188;24.160;2024-02-21T14:01:34;3.10;;;1.90;;
26530;SDS011;14201;43.188;24.160;2024-02-21T14:08:52;2.35;;;1.60;;
26530;SDS011;14201;43.188;24.160;2024-02-21T14:13:43;1.70;;;1.40;;
26530;SDS011;14201;43.188;24.160;2024-02-21T14:16:09;2.00;;;1.60;;
26530;SDS011;14201;43.188;24.160;2024-02-21T14:18:38;3.23;;;1.70;;
26530;SDS011;14201;43.188;24.160;2024-02-21T14:21:07;5.83;;;2.63;;
26530;SDS011;14201;43.188;24.160;2024-02-21T14:23:36;3.70;;;1.80;;
26530;SDS011;14201;43.188;24.160;2024-02-21T14:26:03;3.40;;;1.85;;
26530;SDS011;14201;43.188;24.160;2024-02-21T14:28:29;3.28;;;2.00;;
26530;SDS011;14201;43.188;24.160;2024-02-21T14:30:54;2.60;;;1.95;;
26530;SDS011;14201;43.188;24.160;2024-02-21T14:33:31;2.60;;;2.25;;
26530;SDS011;14201;43.188;24.160;2024-02-21T14:35:57;4.50;;;2.10;;
26530;SDS011;14201;43.188;24.160;2024-02-21T14:38:22;2.70;;;2.10;;
26530;SDS011;14201;43.188;24.160;2024-02-21T14:40:48;3.00;;;2.05;;
26530;SDS011;14201;43.188;24.160;2024-02-21T14:45:39;5.70;;;2.38;;
26530;SDS011;14201;43.188;24.160;2024-02-21T14:48:06;12.68;;;3.30;;
26530;SDS011;14201;43.188;24.160;2024-02-21T14:50:32;5.90;;;2.85;;
26530;SDS011;14201;43.188;24.160;2024-02-21T14:52:58;6.80;;;4.23;;
26530;SDS011;14201;43.188;24.160;2024-02-21T14:55:24;10.43;;;6.10;;
26530;SDS011;14201;43.188;24.160;2024-02-21T14:57:50;7.45;;;5.05;;
26530;SDS011;14201;43.188;24.160;2024-02-21T15:00:16;7.70;;;5.43;;
26530;SDS011;14201;43.188;24.160;2024-02-21T15:02:42;8.93;;;5.70;;
26530;SDS011;14201;43.188;24.160;2024-02-21T15:05:08;8.45;;;5.20;;
26530;SDS011;14201;43.188;24.160;2024-02-21T15:07:34;8.88;;;5.20;;
26530;SDS011;14201;43.188;24.160;2024-02-21T15:10:00;8.43;;;4.80;;
26530;SDS011;14201;43.188;24.160;2024-02-21T15:12:26;5.93;;;4.13;;
26530;SDS011;14201;43.188;24.160;2024-02-21T15:14:51;6.75;;;4.10;;
26530;SDS011;14201;43.188;24.160;2024-02-21T15:17:17;6.05;;;4.20;;
26530;SDS011;14201;43.188;24.160;2024-02-21T15:19:43;6.65;;;4.82;;
26530;SDS011;14201;43.188;24.160;2024-02-21T15:22:10;8.60;;;5.50;;
26530;SDS011;14201;43.188;24.160;2024-02-21T15:24:39;7.97;;;4.90;;
26530;SDS011;14201;43.188;24.160;2024-02-21T15:29:31;6.30;;;4.50;;
26530;SDS011;14201;43.188;24.160;2024-02-21T15:34:22;6.63;;;4.32;;
26530;SDS011;14201;43.188;24.160;2024-02-21T15:36:48;9.38;;;4.03;;
26530;SDS011;14201;43.188;24.160;2024-02-21T15:39:13;2.80;;;1.83;;
26530;SDS011;14201;43.188;24.160;2024-02-21T15:41:39;3.95;;;2.70;;
26530;SDS011;14201;43.188;24.160;2024-02-21T15:44:05;6.80;;;2.87;;
26530;SDS011;14201;43.188;24.160;2024-02-21T15:46:32;4.65;;;2.65;;
26530;SDS011;14201;43.188;24.160;2024-02-21T15:49:02;3.60;;;2.78;;
26530;SDS011;14201;43.188;24.160;2024-02-21T15:51:28;4.97;;;3.00;;
26530;SDS011;14201;43.188;24.160;2024-02-21T15:53:58;4.90;;;2.75;;
26530;SDS011;14201;43.188;24.160;2024-02-21T15:56:24;4.22;;;2.65;;
26530;SDS011;14201;43.188;24.160;2024-02-21T15:58:50;3.78;;;2.63;;
26530;SDS011;14201;43.188;24.160;2024-02-21T16:01:15;3.80;;;2.53;;
26530;SDS011;14201;43.188;24.160;2024-02-21T16:03:41;4.20;;;2.40;;
26530;SDS011;14201;43.188;24.160;2024-02-21T16:06:07;3.63;;;2.10;;
26530;SDS011;14201;43.188;24.160;2024-02-21T16:08:33;3.80;;;2.30;;
26530;SDS011;14201;43.188;24.160;2024-02-21T16:11:02;3.50;;;2.70;;
26530;SDS011;14201;43.188;24.160;2024-02-21T16:13:28;3.72;;;2.53;;
26530;SDS011;14201;43.188;24.160;2024-02-21T16:15:54;4.18;;;2.50;;
26530;SDS011;14201;43.188;24.160;2024-02-21T16:18:19;5.13;;;3.30;;
26530;SDS011;14201;43.188;24.160;2024-02-21T16:20:48;3.60;;;2.40;;
26530;SDS011;14201;43.188;24.160;2024-02-21T16:23:14;3.67;;;2.58;;
26530;SDS011;14201;43.188;24.160;2024-02-21T16:25:41;3.95;;;2.45;;
26530;SDS011;14201;43.188;24.160;2024-02-21T16:28:08;4.28;;;2.67;;
26530;SDS011;14201;43.188;24.160;2024-02-21T16:30:34;3.22;;;2.42;;
26530;SDS011;14201;43.188;24.160;2024-02-21T16:33:01;3.70;;;2.78;;
26530;SDS011;14201;43.188;24.160;2024-02-21T16:35:26;3.80;;;2.70;;
26530;SDS011;14201;43.188;24.160;2024-02-21T16:37:53;4.25;;;3.25;;
26530;SDS011;14201;43.188;24.160;2024-02-21T16:40:19;7.25;;;3.75;;
26530;SDS011;14201;43.188;24.160;2024-02-21T16:42:46;6.10;;;3.47;;
26530;SDS011;14201;43.188;24.160;2024-02-21T16:45:11;5.80;;;3.65;;
26530;SDS011;14201;43.188;24.160;2024-02-21T16:47:37;4.53;;;3.75;;
26530;SDS011;14201;43.188;24.160;2024-02-21T16:50:03;5.90;;;3.88;;
26530;SDS011;14201;43.188;24.160;2024-02-21T16:52:30;6.60;;;4.45;;
26530;SDS011;14201;43.188;24.160;2024-02-21T16:54:56;6.18;;;3.97;;
26530;SDS011;14201;43.188;24.160;2024-02-21T16:57:22;5.63;;;3.97;;
26530;SDS011;14201;43.188;24.160;2024-02-21T16:59:48;5.85;;;4.00;;
26530;SDS011;14201;43.188;24.160;2024-02-21T17:02:14;7.22;;;4.72;;
26530;SDS011;14201;43.188;24.160;2024-02-21T17:04:39;6.32;;;3.50;;
26530;SDS011;14201;43.188;24.160;2024-02-21T17:07:05;6.15;;;3.83;;
26530;SDS011;14201;43.188;24.160;2024-02-21T17:09:31;6.88;;;5.47;;
26530;SDS011;14201;43.188;24.160;2024-02-21T17:11:58;8.52;;;5.53;;
26530;SDS011;14201;43.188;24.160;2024-02-21T17:14:24;8.95;;;5.45;;
26530;SDS011;14201;43.188;24.160;2024-02-21T17:16:51;8.10;;;5.00;;
26530;SDS011;14201;43.188;24.160;2024-02-21T17:19:19;6.70;;;5.07;;
26530;SDS011;14201;43.188;24.160;2024-02-21T17:21:45;6.83;;;5.20;;
26530;SDS011;14201;43.188;24.160;2024-02-21T17:24:11;7.50;;;5.50;;
26530;SDS011;14201;43.188;24.160;2024-02-21T17:26:36;7.00;;;4.78;;
26530;SDS011;14201;43.188;24.160;2024-02-21T17:29:02;7.60;;;5.10;;
26530;SDS011;14201;43.188;24.160;2024-02-21T17:31:28;8.00;;;5.57;;
26530;SDS011;14201;43.188;24.160;2024-02-21T17:33:54;9.05;;;5.75;;
26530;SDS011;14201;43.188;24.160;2024-02-21T17:36:20;8.13;;;5.32;;
26530;SDS011;14201;43.188;24.160;2024-02-21T17:38:48;6.03;;;4.70;;
26530;SDS011;14201;43.188;24.160;2024-02-21T17:43:42;9.77;;;5.32;;
26530;SDS011;14201;43.188;24.160;2024-02-21T17:46:09;7.68;;;4.90;;
26530;SDS011;14201;43.188;24.160;2024-02-21T17:48:36;6.90;;;4.50;;
26530;SDS011;14201;43.188;24.160;2024-02-21T17:53:27;8.93;;;5.50;;